createdAt,value
2023-03-17T00:01:55.074Z,2.11
2023-03-17T00:04:25.725Z,2.11
2023-03-17T00:06:53.263Z,2.03
2023-03-17T00:09:21.091Z,2.02
2023-03-17T00:11:49.157Z,2.02
2023-03-17T00:14:16.801Z,2.06
2023-03-17T00:16:46.095Z,2.12
2023-03-17T00:19:33.204Z,2.18
2023-03-17T00:22:01.471Z,2.20
2023-03-17T00:24:29.052Z,2.20
2023-03-17T00:26:56.196Z,2.23
2023-03-17T00:29:23.883Z,2.20
2023-03-17T00:31:51.283Z,2.18
2023-03-17T00:34:19.080Z,2.15
2023-03-17T00:36:48.326Z,2.15
2023-03-17T00:41:42.735Z,1.77
2023-03-17T00:44:09.834Z,2.10
2023-03-17T00:46:38.257Z,2.09
2023-03-17T00:51:44.843Z,2.10
2023-03-17T00:54:13.208Z,2.11
2023-03-17T00:56:41.731Z,2.12
2023-03-17T00:59:21.780Z,2.13
2023-03-17T01:01:49.200Z,2.11
2023-03-17T01:04:16.344Z,2.12
2023-03-17T01:06:43.487Z,2.14
2023-03-17T01:09:14.879Z,2.12
2023-03-17T01:11:42.209Z,2.07
2023-03-17T01:14:10.960Z,1.92
2023-03-17T01:16:38.901Z,1.95
2023-03-17T01:19:06.058Z,1.99
2023-03-17T01:21:32.901Z,1.98
2023-03-17T01:24:00.550Z,1.92
2023-03-17T01:26:27.391Z,1.93
2023-03-17T01:28:54.917Z,1.92
2023-03-17T01:31:23.128Z,1.88
2023-03-17T01:33:50.063Z,1.83
2023-03-17T01:36:17.933Z,1.77
2023-03-17T01:38:45.638Z,1.82
2023-03-17T01:41:12.673Z,1.84
2023-03-17T01:43:39.446Z,1.85
2023-03-17T01:46:23.195Z,1.90
2023-03-17T01:49:15.649Z,1.88
2023-03-17T01:52:01.867Z,1.86
2023-03-17T01:54:37.209Z,1.82
2023-03-17T01:57:16.361Z,1.85
2023-03-17T01:59:49.618Z,1.86
2023-03-17T02:02:22.819Z,1.86
2023-03-17T02:04:52.324Z,1.83
2023-03-17T02:07:20.736Z,1.87
2023-03-17T02:09:48.120Z,1.87
2023-03-17T02:12:15.336Z,1.80
2023-03-17T02:14:42.340Z,1.71
2023-03-17T02:17:09.259Z,1.71
2023-03-17T02:19:36.171Z,1.73
2023-03-17T02:22:03.736Z,1.74
2023-03-17T02:24:39.309Z,1.75
2023-03-17T02:27:17.423Z,1.70
2023-03-17T02:29:46.501Z,1.71
2023-03-17T02:32:14.224Z,1.70
2023-03-17T02:34:40.949Z,1.59
2023-03-17T02:37:08.532Z,1.67
2023-03-17T02:39:35.478Z,1.54
2023-03-17T02:42:03.143Z,1.68
2023-03-17T02:44:30.032Z,1.67
2023-03-17T02:46:56.756Z,1.63
2023-03-17T02:49:24.704Z,1.63
2023-03-17T02:51:51.839Z,1.66
2023-03-17T02:54:18.734Z,1.66
2023-03-17T02:56:45.519Z,1.66
2023-03-17T02:59:12.305Z,1.64
2023-03-17T03:01:39.875Z,1.62
2023-03-17T03:04:07.637Z,1.63
2023-03-17T03:06:35.006Z,1.60
2023-03-17T03:09:01.955Z,1.59
2023-03-17T03:11:29.437Z,1.58
2023-03-17T03:13:56.387Z,1.57
2023-03-17T03:16:23.144Z,1.52
2023-03-17T03:18:49.926Z,1.50
2023-03-17T03:21:16.813Z,1.50
2023-03-17T03:23:43.645Z,1.48
2023-03-17T03:26:10.425Z,1.43
2023-03-17T03:28:37.341Z,1.42
2023-03-17T03:31:04.424Z,1.42
2023-03-17T03:33:31.916Z,1.44
2023-03-17T03:35:59.538Z,1.44
2023-03-17T03:38:27.936Z,1.44
2023-03-17T03:40:54.827Z,1.47
2023-03-17T03:43:23.909Z,1.46
2023-03-17T03:45:51.510Z,1.43
2023-03-17T03:48:19.023Z,1.21
2023-03-17T03:50:46.085Z,1.37
2023-03-17T03:53:13.333Z,1.41
2023-03-17T03:55:40.284Z,1.38
2023-03-17T03:58:07.013Z,1.34
2023-03-17T04:00:33.917Z,1.35
2023-03-17T04:03:01.662Z,1.36
2023-03-17T04:05:28.633Z,1.38
2023-03-17T04:07:55.686Z,1.37
2023-03-17T04:10:23.387Z,1.38
2023-03-17T04:12:50.396Z,1.39
2023-03-17T04:15:19.672Z,1.41
2023-03-17T04:17:47.201Z,1.41
2023-03-17T04:20:16.092Z,1.43
2023-03-17T04:22:43.807Z,1.43
2023-03-17T04:25:14.301Z,1.44
2023-03-17T04:27:42.536Z,1.49
2023-03-17T04:30:12.341Z,1.53
2023-03-17T04:32:39.198Z,1.44
2023-03-17T04:35:09.224Z,1.50
2023-03-17T04:37:36.254Z,1.44
2023-03-17T04:40:03.080Z,1.40
2023-03-17T04:42:30.021Z,1.44
2023-03-17T04:44:56.724Z,1.43
2023-03-17T04:47:23.436Z,1.51
2023-03-17T04:49:50.162Z,1.58
2023-03-17T04:52:17.043Z,1.62
2023-03-17T04:54:43.869Z,1.65
2023-03-17T04:57:10.810Z,1.67
2023-03-17T04:59:37.514Z,1.68
2023-03-17T05:02:04.311Z,1.68
2023-03-17T05:04:32.455Z,1.65
2023-03-17T05:07:00.008Z,1.68
2023-03-17T05:09:28.830Z,1.75
2023-03-17T05:11:55.837Z,1.78
2023-03-17T05:14:22.772Z,1.79
2023-03-17T05:16:50.855Z,1.79
2023-03-17T05:19:18.621Z,1.65
2023-03-17T05:21:45.514Z,1.77
2023-03-17T05:24:12.722Z,1.85
2023-03-17T05:26:40.116Z,1.76
2023-03-17T05:29:07.259Z,1.86
2023-03-17T05:31:34.034Z,1.85
2023-03-17T05:34:00.844Z,1.83
2023-03-17T05:36:27.570Z,1.76
2023-03-17T05:38:54.383Z,1.55
2023-03-17T05:41:21.785Z,1.62
2023-03-17T05:43:48.633Z,1.80
2023-03-17T05:46:15.585Z,1.84
2023-03-17T05:48:42.598Z,1.85
2023-03-17T05:51:09.423Z,1.86
2023-03-17T05:53:36.460Z,1.89
2023-03-17T05:56:03.969Z,1.89
2023-03-17T05:58:30.836Z,1.87
2023-03-17T06:00:57.623Z,1.85
2023-03-17T06:03:24.597Z,1.95
2023-03-17T06:05:51.845Z,1.95
2023-03-17T06:08:18.696Z,1.95
2023-03-17T06:10:45.888Z,1.99
2023-03-17T06:13:12.918Z,2.02
2023-03-17T06:15:39.872Z,2.04
2023-03-17T06:18:07.481Z,2.06
2023-03-17T06:20:34.472Z,1.92
2023-03-17T06:23:04.857Z,2.02
2023-03-17T06:25:33.352Z,1.98
2023-03-17T06:28:02.611Z,1.99
2023-03-17T06:30:31.400Z,2.05
2023-03-17T06:32:58.609Z,2.16
2023-03-17T06:35:25.551Z,2.23
2023-03-17T06:37:52.424Z,2.20
2023-03-17T06:40:19.263Z,2.29
2023-03-17T06:42:46.008Z,2.32
2023-03-17T06:45:13.060Z,2.40
2023-03-17T06:47:39.951Z,2.46
2023-03-17T06:50:12.340Z,2.46
2023-03-17T06:52:40.926Z,2.39
2023-03-17T06:55:08.639Z,2.52
2023-03-17T06:57:35.458Z,2.55
2023-03-17T07:00:02.272Z,2.55
2023-03-17T07:02:31.259Z,2.51
2023-03-17T07:04:58.349Z,2.49
2023-03-17T07:07:25.269Z,2.55
2023-03-17T07:09:52.864Z,2.54
2023-03-17T07:12:20.228Z,2.56
2023-03-17T07:14:47.007Z,2.59
2023-03-17T07:17:14.730Z,2.62
2023-03-17T07:19:42.437Z,2.69
2023-03-17T07:22:12.351Z,2.79
2023-03-17T07:24:39.824Z,2.89
2023-03-17T07:27:06.701Z,2.92
2023-03-17T07:29:34.722Z,2.99
2023-03-17T07:32:02.183Z,3.11
2023-03-17T07:34:29.471Z,3.21
2023-03-17T07:36:56.154Z,3.26
2023-03-17T07:39:22.924Z,3.32
2023-03-17T07:41:55.198Z,3.38
2023-03-17T07:44:23.571Z,3.47
2023-03-17T07:46:51.633Z,3.54
2023-03-17T07:49:34.064Z,3.42
2023-03-17T07:52:06.734Z,3.54
2023-03-17T07:54:33.557Z,3.50
2023-03-17T07:57:00.680Z,3.54
2023-03-17T07:59:27.504Z,3.58
2023-03-17T08:01:54.273Z,3.63
2023-03-17T08:04:21.042Z,3.62
2023-03-17T08:06:47.906Z,3.76
2023-03-17T08:09:15.722Z,3.93
2023-03-17T08:11:42.841Z,4.04
2023-03-17T08:14:09.652Z,4.10
2023-03-17T08:16:36.862Z,4.08
2023-03-17T08:19:04.436Z,3.98
2023-03-17T08:21:31.483Z,3.86
2023-03-17T08:23:58.285Z,3.76
2023-03-17T08:26:25.600Z,3.72
2023-03-17T08:28:52.394Z,3.66
2023-03-17T08:31:21.642Z,3.76
2023-03-17T08:33:54.127Z,3.63
2023-03-17T08:36:21.787Z,3.67
2023-03-17T08:38:49.011Z,3.64
2023-03-17T08:41:22.262Z,3.63
2023-03-17T08:43:49.041Z,3.66
2023-03-17T08:46:27.230Z,3.70
2023-03-17T08:48:56.528Z,3.63
2023-03-17T08:51:26.743Z,3.70
2023-03-17T08:53:55.089Z,3.77
2023-03-17T08:56:22.752Z,3.65
2023-03-17T08:58:49.951Z,3.94
2023-03-17T09:01:17.374Z,4.11
2023-03-17T09:03:45.308Z,4.31
2023-03-17T09:06:13.696Z,4.32
2023-03-17T09:08:45.139Z,4.47
2023-03-17T09:11:16.679Z,4.53
2023-03-17T09:13:43.817Z,4.56
2023-03-17T09:16:10.586Z,4.65
2023-03-17T09:18:37.891Z,4.67
2023-03-17T09:21:05.291Z,4.65
2023-03-17T09:23:33.001Z,4.70
2023-03-17T09:26:00.952Z,4.73
2023-03-17T09:28:27.955Z,5.07
2023-03-17T09:31:06.305Z,5.79
2023-03-17T09:33:33.239Z,6.15
2023-03-17T09:36:00.130Z,6.62
2023-03-17T09:38:27.832Z,6.88
2023-03-17T09:41:19.992Z,7.10
2023-03-17T09:43:57.049Z,7.60
2023-03-17T09:46:43.873Z,7.94
2023-03-17T09:49:20.045Z,7.68
2023-03-17T09:51:48.196Z,7.42
2023-03-17T09:54:49.717Z,7.51
2023-03-17T09:57:35.662Z,8.05
2023-03-17T10:00:07.897Z,8.64
2023-03-17T10:02:39.966Z,8.60
2023-03-17T10:05:25.126Z,8.81
2023-03-17T10:07:52.091Z,9.11
2023-03-17T10:10:31.612Z,8.95
2023-03-17T10:13:12.243Z,9.47
2023-03-17T10:16:11.873Z,9.94
2023-03-17T10:18:57.773Z,10.08
2023-03-17T10:21:32.944Z,9.70
2023-03-17T10:24:00.375Z,9.33
2023-03-17T10:26:42.058Z,8.89
2023-03-17T10:29:15.812Z,8.54
2023-03-17T10:31:42.619Z,8.11
2023-03-17T10:34:19.167Z,7.69
2023-03-17T10:37:07.866Z,7.31
2023-03-17T10:39:47.140Z,7.21
2023-03-17T10:42:22.233Z,7.25
2023-03-17T10:45:07.594Z,7.57
2023-03-17T10:48:02.698Z,7.37
2023-03-17T10:50:33.010Z,7.05
2023-03-17T10:53:01.224Z,6.90
2023-03-17T10:55:34.065Z,6.82
2023-03-17T10:58:15.346Z,6.82
2023-03-17T11:01:12.597Z,6.62
2023-03-17T11:03:40.118Z,6.39
2023-03-17T11:06:10.701Z,6.37
2023-03-17T11:08:46.936Z,6.38
2023-03-17T11:11:29.849Z,6.43
2023-03-17T11:14:11.773Z,6.56
2023-03-17T11:16:47.601Z,6.49
2023-03-17T11:19:18.587Z,6.38
2023-03-17T11:22:00.264Z,6.30
2023-03-17T11:24:33.515Z,6.48
2023-03-17T11:27:05.911Z,6.50
2023-03-17T11:29:33.143Z,6.47
2023-03-17T11:31:59.796Z,6.42
2023-03-17T11:34:35.598Z,6.28
2023-03-17T11:37:11.860Z,6.04
2023-03-17T11:40:02.043Z,6.04
2023-03-17T11:42:51.354Z,6.11
2023-03-17T11:45:24.459Z,6.05
2023-03-17T11:48:09.448Z,5.87
2023-03-17T11:50:55.476Z,5.71
2023-03-17T11:53:54.721Z,5.64
2023-03-17T11:56:28.300Z,5.74
2023-03-17T11:59:13.016Z,5.70
2023-03-17T12:01:54.888Z,5.62
2023-03-17T12:04:43.495Z,5.54
2023-03-17T12:07:20.875Z,5.55
2023-03-17T12:10:21.898Z,5.50
2023-03-17T12:12:57.149Z,5.46
2023-03-17T12:15:51.067Z,5.39
2023-03-17T12:18:33.227Z,5.34
2023-03-17T12:21:24.915Z,5.23
2023-03-17T12:24:02.547Z,5.10
2023-03-17T12:26:41.499Z,5.12
2023-03-17T12:29:22.773Z,5.09
2023-03-17T12:32:03.268Z,4.98
2023-03-17T12:34:57.131Z,4.93
2023-03-17T12:37:25.969Z,4.96
2023-03-17T12:40:00.784Z,4.95
2023-03-17T12:42:37.591Z,5.00
2023-03-17T12:45:31.018Z,4.94
2023-03-17T12:48:22.554Z,4.87
2023-03-17T12:51:28.354Z,4.76
2023-03-17T12:53:55.723Z,4.72
2023-03-17T12:56:26.418Z,4.60
2023-03-17T12:58:58.706Z,4.74
2023-03-17T13:01:40.101Z,4.94
2023-03-17T13:04:12.922Z,5.24
2023-03-17T13:06:45.358Z,5.65
2023-03-17T13:09:31.582Z,5.99
2023-03-17T13:12:00.602Z,5.88
2023-03-17T13:14:43.908Z,5.72
2023-03-17T13:17:24.616Z,5.66
2023-03-17T13:20:10.465Z,5.74
2023-03-17T13:22:41.276Z,5.69
2023-03-17T13:25:14.022Z,5.65
2023-03-17T13:27:42.531Z,5.48
2023-03-17T13:30:26.375Z,5.82
2023-03-17T13:33:04.385Z,5.96
2023-03-17T13:36:17.894Z,6.03
2023-03-17T13:39:10.155Z,5.92
2023-03-17T13:41:48.131Z,5.77
2023-03-17T13:44:38.663Z,5.53
2023-03-17T13:47:36.673Z,5.34
2023-03-17T13:50:13.900Z,5.15
2023-03-17T13:52:56.287Z,5.01
2023-03-17T13:55:23.890Z,4.97
2023-03-17T13:58:11.366Z,5.27
2023-03-17T14:00:49.423Z,6.50
2023-03-17T14:03:57.102Z,8.47
2023-03-17T14:06:32.596Z,9.86
2023-03-17T14:09:08.915Z,10.28
2023-03-17T14:11:40.784Z,9.67
2023-03-17T14:14:37.788Z,9.10
2023-03-17T14:17:20.194Z,8.46
2023-03-17T14:20:08.692Z,7.86
2023-03-17T14:22:45.590Z,7.31
2023-03-17T14:25:28.792Z,6.77
2023-03-17T14:27:57.988Z,6.23
2023-03-17T14:30:31.105Z,5.98
2023-03-17T14:33:07.592Z,5.77
2023-03-17T14:35:39.379Z,5.58
2023-03-17T14:38:25.492Z,5.40
2023-03-17T14:41:04.586Z,5.26
2023-03-17T14:43:33.394Z,5.08
2023-03-17T14:46:02.447Z,4.99
2023-03-17T14:48:32.014Z,4.91
2023-03-17T14:51:07.556Z,4.79
2023-03-17T14:53:46.622Z,4.61
2023-03-17T14:56:13.814Z,4.53
2023-03-17T14:58:46.153Z,4.43
2023-03-17T15:01:18.518Z,4.32
2023-03-17T15:04:07.946Z,4.30
2023-03-17T15:06:37.502Z,4.23
2023-03-17T15:09:26.597Z,4.16
2023-03-17T15:12:03.309Z,4.05
2023-03-17T15:14:40.070Z,3.86
2023-03-17T15:17:19.185Z,3.94
2023-03-17T15:19:52.698Z,3.89
2023-03-17T15:22:32.272Z,3.84
2023-03-17T15:25:34.429Z,3.75
2023-03-17T15:28:01.332Z,3.69
2023-03-17T15:30:37.387Z,3.41
2023-03-17T15:33:17.891Z,3.11
2023-03-17T15:35:44.676Z,3.47
2023-03-17T15:38:12.671Z,3.41
2023-03-17T15:40:39.636Z,3.37
2023-03-17T15:43:06.448Z,3.30
2023-03-17T15:45:33.346Z,3.24
2023-03-17T15:48:00.689Z,3.19
2023-03-17T15:50:33.126Z,3.14
2023-03-17T15:53:00.174Z,3.10
2023-03-17T15:55:30.200Z,2.94
2023-03-17T15:57:58.316Z,2.96
2023-03-17T16:00:29.521Z,2.89
2023-03-17T16:03:00.212Z,2.84
2023-03-17T16:05:31.219Z,2.78
2023-03-17T16:07:58.119Z,2.72
2023-03-17T16:10:28.001Z,2.65
2023-03-17T16:12:55.328Z,2.61
2023-03-17T16:15:28.004Z,2.58
2023-03-17T16:17:58.533Z,2.51
2023-03-17T16:20:25.216Z,2.42
2023-03-17T16:22:59.038Z,2.36
2023-03-17T16:25:31.458Z,2.33
2023-03-17T16:28:00.415Z,2.30
2023-03-17T16:30:31.493Z,2.27
2023-03-17T16:33:02.373Z,2.20
2023-03-17T16:35:29.615Z,2.15
2023-03-17T16:37:56.377Z,2.08
2023-03-17T16:40:23.100Z,2.06
2023-03-17T16:42:50.969Z,1.87
2023-03-17T16:45:28.380Z,1.99
2023-03-17T16:47:56.587Z,1.94
2023-03-17T16:50:28.819Z,1.89
2023-03-17T16:52:55.712Z,1.85
2023-03-17T16:55:23.887Z,1.79
2023-03-17T16:57:53.463Z,1.74
2023-03-17T17:00:26.123Z,1.71
2023-03-17T17:02:53.448Z,1.63
2023-03-17T17:05:26.741Z,1.62
2023-03-17T17:07:56.231Z,1.57
2023-03-17T17:10:25.575Z,1.55
2023-03-17T17:12:52.908Z,1.52
2023-03-17T17:15:21.457Z,1.50
2023-03-17T17:17:52.277Z,1.32
2023-03-17T17:20:22.531Z,1.47
2023-03-17T17:22:49.634Z,1.43
2023-03-17T17:25:17.760Z,1.38
2023-03-17T17:27:46.211Z,1.34
2023-03-17T17:30:16.155Z,1.29
2023-03-17T17:32:43.704Z,1.26
2023-03-17T17:35:11.881Z,1.24
2023-03-17T17:37:39.427Z,1.23
2023-03-17T17:40:08.888Z,1.20
2023-03-17T17:42:36.217Z,1.17
2023-03-17T17:45:03.193Z,1.14
2023-03-17T17:47:32.226Z,1.10
2023-03-17T17:49:59.647Z,1.05
2023-03-17T17:52:26.647Z,1.01
2023-03-17T17:54:53.421Z,1.00
2023-03-17T17:57:20.619Z,0.92
2023-03-17T17:59:47.493Z,0.83
2023-03-17T18:02:14.467Z,0.90
2023-03-17T18:04:41.588Z,0.86
2023-03-17T18:07:08.615Z,0.82
2023-03-17T18:09:35.836Z,0.78
2023-03-17T18:12:02.852Z,0.75
2023-03-17T18:14:29.747Z,0.67
2023-03-17T18:16:56.584Z,0.61
2023-03-17T18:19:23.551Z,0.54
2023-03-17T18:21:50.475Z,0.49
2023-03-17T18:24:17.540Z,0.39
2023-03-17T18:26:44.562Z,0.41
2023-03-17T18:29:12.435Z,0.23
2023-03-17T18:31:46.709Z,0.36
2023-03-17T18:34:19.276Z,0.29
2023-03-17T18:36:48.083Z,0.25
2023-03-17T18:39:16.027Z,0.20
2023-03-17T18:41:44.163Z,0.18
2023-03-17T18:44:12.453Z,0.15
2023-03-17T18:46:39.434Z,-0.03
2023-03-17T18:49:07.084Z,0.11
2023-03-17T18:51:34.069Z,0.07
2023-03-17T18:54:00.992Z,0.05
2023-03-17T18:56:29.683Z,0.02
2023-03-17T18:58:57.077Z,-0.02
2023-03-17T19:01:24.149Z,-0.06
2023-03-17T19:03:51.557Z,-0.08
2023-03-17T19:06:21.770Z,-0.10
2023-03-17T19:08:49.208Z,-0.14
2023-03-17T19:11:18.439Z,-0.16
2023-03-17T19:13:45.756Z,-0.18
2023-03-17T19:16:13.722Z,-0.28
2023-03-17T19:18:42.436Z,-0.29
2023-03-17T19:21:10.456Z,-0.35
2023-03-17T19:23:38.338Z,-0.37
2023-03-17T19:26:06.126Z,-0.40
2023-03-17T19:28:33.483Z,-0.42
2023-03-17T19:31:01.332Z,-0.46
2023-03-17T19:33:29.048Z,-0.49
2023-03-17T19:35:58.750Z,-0.52
2023-03-17T19:38:27.165Z,-0.53
2023-03-17T19:40:54.547Z,-0.57
2023-03-17T19:43:39.092Z,-0.60
2023-03-17T19:46:07.953Z,-0.63
2023-03-17T19:48:35.690Z,-0.66
2023-03-17T19:51:03.317Z,-0.64
2023-03-17T19:53:30.493Z,-0.65
2023-03-17T19:55:57.350Z,-0.66
2023-03-17T19:58:24.643Z,-0.68
2023-03-17T20:00:51.678Z,-0.71
2023-03-17T20:03:18.868Z,-0.76
2023-03-17T20:05:46.483Z,-0.80
2023-03-17T20:08:14.647Z,-0.82
2023-03-17T20:10:41.522Z,-0.85
2023-03-17T20:13:08.392Z,-0.92
2023-03-17T20:15:35.506Z,-0.91
2023-03-17T20:18:02.395Z,-0.91
2023-03-17T20:20:29.964Z,-0.95
2023-03-17T20:22:57.408Z,-0.97
2023-03-17T20:25:24.195Z,-0.96
2023-03-17T20:27:51.165Z,-0.97
2023-03-17T20:30:18.108Z,-1.07
2023-03-17T20:32:45.409Z,-1.15
2023-03-17T20:35:12.506Z,-1.28
2023-03-17T20:37:39.749Z,-1.14
2023-03-17T20:40:09.060Z,-1.12
2023-03-17T20:42:36.148Z,-1.28
2023-03-17T20:45:03.734Z,-1.10
2023-03-17T20:47:31.308Z,-1.18
2023-03-17T20:49:59.005Z,-1.10
2023-03-17T20:52:30.309Z,-1.09
2023-03-17T20:54:59.550Z,-1.12
2023-03-17T20:57:26.424Z,-1.16
2023-03-17T20:59:53.217Z,-1.35
2023-03-17T21:02:20.869Z,-1.23
2023-03-17T21:04:49.025Z,-1.25
2023-03-17T21:07:19.562Z,-1.26
2023-03-17T21:09:46.927Z,-1.26
2023-03-17T21:12:19.624Z,-1.27
2023-03-17T21:14:48.341Z,-1.29
2023-03-17T21:17:16.498Z,-1.45
2023-03-17T21:19:43.398Z,-1.34
2023-03-17T21:22:11.102Z,-1.35
2023-03-17T21:24:39.847Z,-1.36
2023-03-17T21:27:09.980Z,-1.39
2023-03-17T21:29:37.714Z,-1.39
2023-03-17T21:32:05.378Z,-1.43
2023-03-17T21:34:33.062Z,-1.46
2023-03-17T21:37:00.070Z,-1.49
2023-03-17T21:39:29.741Z,-1.52
2023-03-17T21:41:57.068Z,-1.53
2023-03-17T21:44:23.828Z,-1.53
2023-03-17T21:46:50.974Z,-1.68
2023-03-17T21:49:18.886Z,-1.56
2023-03-17T21:51:47.551Z,-1.59
2023-03-17T21:54:14.773Z,-1.64
2023-03-17T21:56:42.752Z,-1.64
2023-03-17T21:59:11.228Z,-1.63
2023-03-17T22:01:39.080Z,-1.64
2023-03-17T22:04:06.416Z,-1.75
2023-03-17T22:06:33.615Z,-1.68
2023-03-17T22:09:00.619Z,-1.75
2023-03-17T22:11:27.364Z,-1.81
2023-03-17T22:13:54.134Z,-1.81
2023-03-17T22:16:21.716Z,-1.84
2023-03-17T22:18:48.558Z,-1.88
2023-03-17T22:21:16.802Z,-1.93
2023-03-17T22:23:44.565Z,-1.93
2023-03-17T22:26:17.747Z,-1.94
2023-03-17T22:28:46.024Z,-1.95
2023-03-17T22:31:18.434Z,-1.97
2023-03-17T22:33:46.410Z,-2.00
2023-03-17T22:36:13.193Z,-2.02
2023-03-17T22:38:40.546Z,-2.08
2023-03-17T22:41:09.909Z,-2.08
2023-03-17T22:43:36.817Z,-2.12
2023-03-17T22:46:04.450Z,-2.08
2023-03-17T22:48:32.791Z,-2.10
2023-03-17T22:51:04.722Z,-2.20
2023-03-17T22:53:32.609Z,-2.17
2023-03-17T22:56:00.725Z,-2.18
2023-03-17T22:58:28.549Z,-2.30
2023-03-17T23:00:56.419Z,-2.21
2023-03-17T23:03:24.878Z,-2.21
2023-03-17T23:05:57.153Z,-2.24
2023-03-17T23:08:24.904Z,-2.24
2023-03-17T23:10:53.676Z,-2.26
2023-03-17T23:13:21.132Z,-2.36
2023-03-17T23:15:48.850Z,-2.27
2023-03-17T23:18:16.174Z,-2.29
2023-03-17T23:20:43.602Z,-2.29
2023-03-17T23:23:11.669Z,-2.31
2023-03-17T23:25:39.139Z,-2.33
2023-03-17T23:28:07.866Z,-2.40
2023-03-17T23:30:35.912Z,-2.36
2023-03-17T23:33:04.922Z,-2.37
2023-03-17T23:35:32.579Z,-2.38
2023-03-17T23:37:59.774Z,-2.41
2023-03-17T23:40:26.510Z,-2.41
2023-03-17T23:42:55.173Z,-2.42
2023-03-17T23:45:23.398Z,-2.45
2023-03-17T23:47:52.263Z,-2.49
2023-03-17T23:50:20.255Z,-2.52
2023-03-17T23:52:48.149Z,-2.52
2023-03-17T23:55:16.983Z,-2.51
2023-03-17T23:57:44.399Z,-2.67
